Terminal Aerodrome Forecast
Issued by NWS Wilmington, OH

Current Version | Previous Version | Graphics & Text | Print | Product List | Glossary On
Versions: 1 2 3 4 5 6 7 8 9 10 11 12 13 14 15 16 17 18 19 20 21 22 23 24 25
000
FTUS41 KILN 241741 AAB
TAFCVG
TAF AMD
KCVG 241741Z 2418/2524 21013G21KT P6SM SCT040
      TEMPO 2419/2422 BKN040
     FM242300 20010KT P6SM FEW045
     FM250300 16006KT P6SM SCT200
     FM251500 18009KT P6SM SCT040 BKN200
     FM251900 16010KT P6SM BKN045=

USA.gov is the U.S. government's official web portal to all federal, state and local government web resources and services.